createdAt,value
2019-06-08T00:00:58.866Z,100146.82
2019-06-08T00:03:31.178Z,100143.60
2019-06-08T00:06:03.415Z,100149.53
2019-06-08T00:08:35.656Z,100144.77
2019-06-08T00:11:08.041Z,100144.77
2019-06-08T00:13:40.294Z,100143.59
2019-06-08T00:16:13.233Z,100144.45
2019-06-08T00:18:45.671Z,100142.28
2019-06-08T00:21:17.933Z,100149.91
2019-06-08T00:23:50.232Z,100151.46
2019-06-08T00:26:22.632Z,100145.69
2019-06-08T00:28:54.812Z,100150.92
2019-06-08T00:31:27.069Z,100145.84
2019-06-08T00:33:59.286Z,100146.54
2019-06-08T00:36:31.675Z,100148.91
2019-06-08T00:39:06.999Z,100147.74
2019-06-08T00:41:39.328Z,100146.39
2019-06-08T00:44:11.603Z,100140.80
2019-06-08T00:46:43.838Z,100140.14
2019-06-08T00:49:17.198Z,100137.28
2019-06-08T00:51:50.540Z,100137.44
2019-06-08T00:54:23.512Z,100141.00
2019-06-08T00:56:55.874Z,100138.44
2019-06-08T00:59:28.142Z,100134.72
2019-06-08T01:02:00.413Z,100139.10
2019-06-08T01:04:32.802Z,100140.45
2019-06-08T01:07:05.144Z,100138.79
2019-06-08T01:09:37.335Z,100142.86
2019-06-08T01:12:09.592Z,100144.52
2019-06-08T01:14:41.881Z,100147.39
2019-06-08T01:17:14.244Z,100146.23
2019-06-08T01:19:47.830Z,100147.20
2019-06-08T01:22:21.453Z,100142.13
2019-06-08T01:24:54.295Z,100146.86
2019-06-08T01:27:28.188Z,100154.95
2019-06-08T01:30:00.888Z,100149.22
2019-06-08T01:32:33.182Z,100150.89
2019-06-08T01:35:06.042Z,100147.86
2019-06-08T01:37:38.431Z,100151.08
2019-06-08T01:40:11.004Z,100161.08
2019-06-08T01:42:43.499Z,100160.42
2019-06-08T01:45:18.054Z,100162.31
2019-06-08T01:47:50.396Z,100165.22
2019-06-08T01:50:22.767Z,100162.50
2019-06-08T01:52:55.112Z,100165.05
2019-06-08T01:55:27.376Z,100163.70
2019-06-08T01:57:59.726Z,100171.36
2019-06-08T02:00:39.266Z,100161.17
2019-06-08T02:03:06.028Z,100171.36
2019-06-08T02:05:38.307Z,100167.95
2019-06-08T02:08:10.681Z,100166.95
2019-06-08T02:10:42.956Z,100167.61
2019-06-08T02:13:15.326Z,100165.94
2019-06-08T02:15:47.679Z,100171.70
2019-06-08T02:18:35.645Z,100173.56
2019-06-08T02:20:53.899Z,100169.49
2019-06-08T02:23:26.980Z,100167.47
2019-06-08T02:25:59.527Z,100174.44
2019-06-08T02:28:31.979Z,100179.67
2019-06-08T02:31:04.378Z,100178.12
2019-06-08T02:33:37.341Z,100178.83
2019-06-08T02:36:09.758Z,100175.08
2019-06-08T02:38:42.011Z,100185.08
2019-06-08T02:41:14.387Z,100178.80
2019-06-08T02:43:46.928Z,100175.58
2019-06-08T02:46:19.356Z,100172.71
2019-06-08T02:49:03.566Z,100168.11
2019-06-08T02:51:25.810Z,100166.91
2019-06-08T02:53:59.166Z,100163.98
2019-06-08T02:56:34.100Z,100166.31
2019-06-08T02:59:06.790Z,100167.16
2019-06-08T03:01:40.887Z,100175.75
2019-06-08T03:04:13.211Z,100181.95
2019-06-08T03:06:46.878Z,100176.81
2019-06-08T03:09:19.458Z,100181.48
2019-06-08T03:11:53.143Z,100173.27
2019-06-08T03:14:27.757Z,100175.24
2019-06-08T03:16:59.998Z,100179.37
2019-06-08T03:19:33.355Z,100177.05
2019-06-08T03:22:10.538Z,100177.30
2019-06-08T03:24:41.496Z,100181.22
2019-06-08T03:27:15.158Z,100184.78
2019-06-08T03:29:47.686Z,100173.82
2019-06-08T03:32:19.965Z,100175.00
2019-06-08T03:34:56.295Z,100174.48
2019-06-08T03:37:26.181Z,100176.08
2019-06-08T03:39:58.414Z,100180.06
2019-06-08T03:42:30.606Z,100180.97
2019-06-08T03:45:02.865Z,100180.21
2019-06-08T03:47:36.827Z,100178.02
2019-06-08T03:50:09.402Z,100178.45
2019-06-08T03:52:43.495Z,100180.59
2019-06-08T03:55:15.640Z,100184.12
2019-06-08T03:57:47.911Z,100187.58
2019-06-08T04:00:20.182Z,100193.27
2019-06-08T04:02:52.346Z,100182.88
2019-06-08T04:05:24.601Z,100186.61
2019-06-08T04:07:56.857Z,100184.91
2019-06-08T04:10:29.105Z,100185.67
2019-06-08T04:13:01.363Z,100190.16
2019-06-08T04:15:33.750Z,100187.82
2019-06-08T04:18:06.927Z,100194.13
2019-06-08T04:20:40.333Z,100189.42
2019-06-08T04:23:13.315Z,100202.63
2019-06-08T04:25:47.672Z,100202.27
2019-06-08T04:28:19.692Z,100203.94
2019-06-08T04:30:52.132Z,100206.32
2019-06-08T04:33:24.423Z,100212.30
2019-06-08T04:35:56.703Z,100211.00
2019-06-08T04:38:28.905Z,100210.98
2019-06-08T04:41:01.074Z,100210.44
2019-06-08T04:43:33.339Z,100214.51
2019-06-08T04:46:05.594Z,100215.06
2019-06-08T04:48:38.607Z,100213.17
2019-06-08T04:51:11.745Z,100214.98
2019-06-08T04:53:45.584Z,100220.78
2019-06-08T04:56:17.916Z,100219.19
2019-06-08T04:58:51.638Z,100211.45
2019-06-08T05:01:23.850Z,100209.45
2019-06-08T05:03:56.138Z,100203.46
2019-06-08T05:06:28.480Z,100210.94
2019-06-08T05:09:00.740Z,100209.45
2019-06-08T05:11:36.307Z,100213.13
2019-06-08T05:14:07.195Z,100221.77
2019-06-08T05:16:40.930Z,100224.11
2019-06-08T05:19:13.508Z,100221.25
2019-06-08T05:21:45.763Z,100229.05
2019-06-08T05:24:18.023Z,100230.28
2019-06-08T05:26:50.405Z,100231.38
2019-06-08T05:29:22.768Z,100235.14
2019-06-08T05:31:55.617Z,100231.61
2019-06-08T05:34:27.872Z,100238.40
2019-06-08T05:37:00.065Z,100234.35
2019-06-08T05:39:32.333Z,100235.73
2019-06-08T05:42:04.554Z,100238.16
2019-06-08T05:44:36.802Z,100242.39
2019-06-08T05:47:09.100Z,100243.53
2019-06-08T05:49:41.600Z,100246.69
2019-06-08T05:52:14.006Z,100247.21
2019-06-08T05:54:47.921Z,100247.29
2019-06-08T05:57:20.314Z,100248.19
2019-06-08T05:59:52.669Z,100239.97
2019-06-08T06:02:24.965Z,100241.36
2019-06-08T06:04:57.341Z,100243.36
2019-06-08T06:07:29.681Z,100247.17
2019-06-08T06:10:02.104Z,100241.22
2019-06-08T06:12:34.447Z,100240.42
2019-06-08T06:15:08.726Z,100243.59
2019-06-08T06:17:40.974Z,100241.33
2019-06-08T06:20:13.334Z,100248.30
2019-06-08T06:22:45.902Z,100242.42
2019-06-08T06:25:19.535Z,100247.05
2019-06-08T06:27:51.877Z,100242.10
2019-06-08T06:30:24.521Z,100235.34
2019-06-08T06:32:57.022Z,100235.28
2019-06-08T06:35:29.241Z,100228.72
2019-06-08T06:38:01.433Z,100229.47
2019-06-08T06:40:33.679Z,100227.03
2019-06-08T06:43:05.950Z,100234.11
2019-06-08T06:45:38.138Z,100230.17
2019-06-08T06:48:10.413Z,100237.08
2019-06-08T06:50:42.655Z,100226.80
2019-06-08T06:53:14.960Z,100227.96
2019-06-08T06:55:47.149Z,100228.45
2019-06-08T06:58:19.353Z,100236.15
2019-06-08T07:00:51.638Z,100222.62
2019-06-08T07:03:23.852Z,100229.69
2019-06-08T07:05:56.117Z,100225.73
2019-06-08T07:08:28.554Z,100225.77
2019-06-08T07:11:00.826Z,100222.12
2019-06-08T07:13:33.104Z,100220.52
2019-06-08T07:16:17.783Z,100223.05
2019-06-08T07:18:39.353Z,100225.28
2019-06-08T07:21:11.603Z,100213.98
2019-06-08T07:23:43.791Z,100211.71
2019-06-08T07:26:16.047Z,100211.91
2019-06-08T07:28:49.433Z,100205.80
2019-06-08T07:31:23.409Z,100205.85
2019-06-08T07:33:56.015Z,100206.73
2019-06-08T07:36:28.293Z,100207.45
2019-06-08T07:39:01.613Z,100206.92
2019-06-08T07:41:35.398Z,100199.34
2019-06-08T07:44:07.658Z,100206.24
2019-06-08T07:46:39.921Z,100208.56
2019-06-08T07:49:12.164Z,100207.36
2019-06-08T07:51:57.811Z,100205.70
2019-06-08T07:54:18.368Z,100196.32
2019-06-08T07:56:51.514Z,100204.41
2019-06-08T07:59:24.622Z,100204.33
2019-06-08T08:01:56.818Z,100203.27
2019-06-08T08:04:29.085Z,100207.36
2019-06-08T08:07:01.352Z,100199.34
2019-06-08T08:09:33.560Z,100201.57
2019-06-08T08:12:05.921Z,100203.97
2019-06-08T08:14:38.125Z,100198.67
2019-06-08T08:17:10.405Z,100197.17
2019-06-08T08:19:42.679Z,100196.36
2019-06-08T08:22:23.001Z,100191.16
2019-06-08T08:24:53.442Z,100191.16
2019-06-08T08:27:22.835Z,100190.16
2019-06-08T08:29:55.419Z,100182.23
2019-06-08T08:32:28.386Z,100181.52
2019-06-08T08:35:02.837Z,100185.67
2019-06-08T08:37:34.957Z,100174.97
2019-06-08T08:40:08.555Z,100183.23
2019-06-08T08:42:40.818Z,100175.44
2019-06-08T08:45:13.792Z,100178.86
2019-06-08T08:47:48.354Z,100185.16
2019-06-08T08:50:21.583Z,100180.48
2019-06-08T08:52:54.176Z,100182.77
2019-06-08T08:55:27.990Z,100172.91
2019-06-08T08:58:02.226Z,100183.74
2019-06-08T09:00:34.679Z,100173.65
2019-06-08T09:03:22.043Z,100176.14
2019-06-08T09:05:40.914Z,100177.42
2019-06-08T09:08:13.176Z,100175.05
2019-06-08T09:10:47.936Z,100179.38
2019-06-08T09:13:19.409Z,100171.14
2019-06-08T09:15:53.777Z,100163.66
2019-06-08T09:18:28.533Z,100168.84
2019-06-08T09:21:02.423Z,100168.98
2019-06-08T09:23:34.159Z,100173.48
2019-06-08T09:26:12.209Z,100161.20
2019-06-08T09:28:40.567Z,100155.56
2019-06-08T09:31:13.289Z,100160.79
2019-06-08T09:33:55.164Z,100156.02
2019-06-08T09:36:19.876Z,100152.95
2019-06-08T09:38:53.301Z,100144.83
2019-06-08T09:41:30.816Z,100142.61
2019-06-08T09:44:02.369Z,100141.87
2019-06-08T09:46:34.141Z,100131.66
2019-06-08T09:49:11.003Z,100137.43
2019-06-08T09:51:40.339Z,100134.83
2019-06-08T09:54:13.230Z,100129.81
2019-06-08T09:56:47.699Z,100122.56
2019-06-08T09:59:19.606Z,100122.37
2019-06-08T10:01:51.904Z,100121.45
2019-06-08T10:04:25.676Z,100119.20
2019-06-08T10:07:00.205Z,100127.71
2019-06-08T10:09:32.027Z,100133.71
2019-06-08T10:12:06.102Z,100136.76
2019-06-08T10:14:38.387Z,100132.55
2019-06-08T10:17:10.685Z,100138.16
2019-06-08T10:19:42.999Z,100145.50
2019-06-08T10:22:17.981Z,100136.13
2019-06-08T10:24:49.337Z,100133.75
2019-06-08T10:27:21.558Z,100137.17
2019-06-08T10:29:55.177Z,100134.31
2019-06-08T10:32:28.264Z,100132.90
2019-06-08T10:35:03.602Z,100123.46
2019-06-08T10:37:34.906Z,100124.93
2019-06-08T10:40:07.831Z,100131.05
2019-06-08T10:42:40.423Z,100132.60
2019-06-08T10:45:15.052Z,100132.41
2019-06-08T10:47:48.031Z,100139.23
2019-06-08T10:50:20.772Z,100140.80
2019-06-08T10:52:53.049Z,100143.60
2019-06-08T10:55:27.941Z,100155.69
2019-06-08T10:58:00.171Z,100158.77
2019-06-08T11:00:32.450Z,100153.48
2019-06-08T11:03:06.719Z,100152.85
2019-06-08T11:05:38.797Z,100155.43
2019-06-08T11:08:14.399Z,100153.61
2019-06-08T11:10:47.389Z,100153.59
2019-06-08T11:13:19.002Z,100158.39
2019-06-08T11:15:52.464Z,100151.36
2019-06-08T11:18:24.714Z,100150.38
2019-06-08T11:20:59.471Z,100145.28
2019-06-08T11:23:31.045Z,100143.30
2019-06-08T11:26:07.812Z,100136.73
2019-06-08T11:28:38.302Z,100128.83
2019-06-08T11:31:15.777Z,100128.77
2019-06-08T11:33:44.497Z,100129.53
2019-06-08T11:36:18.811Z,100119.69
2019-06-08T11:38:51.707Z,100119.38
2019-06-08T11:41:23.975Z,100117.27
2019-06-08T11:43:59.602Z,100117.77
2019-06-08T11:46:30.293Z,100104.83
2019-06-08T11:49:04.921Z,100108.53
2019-06-08T11:51:37.878Z,100107.17
2019-06-08T11:54:27.125Z,100102.64
2019-06-08T11:56:44.610Z,100106.25
2019-06-08T11:59:17.072Z,100098.80
2019-06-08T12:01:50.547Z,100107.62
2019-06-08T12:04:22.869Z,100102.84
2019-06-08T12:06:55.140Z,100099.56
2019-06-08T12:09:28.672Z,100098.17
2019-06-08T12:12:01.077Z,100093.76
2019-06-08T12:14:33.736Z,100095.08
2019-06-08T12:17:11.774Z,100091.48
2019-06-08T12:19:41.353Z,100086.44
2019-06-08T12:22:14.564Z,100083.88
2019-06-08T12:24:46.819Z,100083.13
2019-06-08T12:27:26.841Z,100078.80
2019-06-08T12:29:53.002Z,100076.06
2019-06-08T12:32:27.724Z,100070.55
2019-06-08T12:35:00.063Z,100062.30
2019-06-08T12:37:34.035Z,100061.73
2019-06-08T12:40:09.383Z,100059.08
2019-06-08T12:42:40.601Z,100054.44
2019-06-08T12:45:13.396Z,100056.41
2019-06-08T12:47:47.688Z,100052.09
2019-06-08T12:50:20.642Z,100043.36
2019-06-08T12:52:52.924Z,100049.98
2019-06-08T12:55:25.571Z,100037.78
2019-06-08T12:57:59.505Z,100033.04
2019-06-08T13:00:53.652Z,100026.25
2019-06-08T13:03:44.071Z,100032.16
2019-06-08T13:06:30.798Z,100025.59
2019-06-08T13:09:13.463Z,100028.19
2019-06-08T13:11:57.197Z,100025.34
2019-06-08T13:14:50.556Z,100026.05
2019-06-08T13:17:34.772Z,100022.17
2019-06-08T13:20:25.148Z,100026.05
2019-06-08T13:23:14.799Z,100017.75
2019-06-08T13:26:13.796Z,100017.16
2019-06-08T13:28:45.085Z,100014.05
2019-06-08T13:31:21.791Z,100017.01
2019-06-08T13:34:01.506Z,100019.91
2019-06-08T13:36:48.509Z,100009.28
2019-06-08T13:39:34.329Z,100008.36
2019-06-08T13:42:43.850Z,100008.36
2019-06-08T13:45:43.207Z,100005.09
2019-06-08T13:48:39.392Z,100007.96
2019-06-08T13:51:28.257Z,100002.34
2019-06-08T13:54:22.601Z,99999.75
2019-06-08T13:57:08.519Z,100006.02
2019-06-08T14:00:00.569Z,100008.17
2019-06-08T14:02:50.059Z,99999.48
2019-06-08T14:05:34.818Z,99994.84
2019-06-08T14:08:12.457Z,100006.01
2019-06-08T14:10:48.422Z,100002.68
2019-06-08T14:13:27.023Z,99998.77
2019-06-08T14:15:58.555Z,99991.78
2019-06-08T14:18:34.168Z,99991.22
2019-06-08T14:21:07.155Z,99980.62
2019-06-08T14:23:41.490Z,99981.45
2019-06-08T14:26:14.736Z,99988.43
2019-06-08T14:28:50.515Z,99983.53
2019-06-08T14:31:25.659Z,99994.13
2019-06-08T14:33:59.624Z,99997.35
2019-06-08T14:36:32.786Z,99999.13
2019-06-08T14:39:10.683Z,99996.38
2019-06-08T14:41:49.206Z,100000.22
2019-06-08T14:44:21.133Z,99999.07
2019-06-08T14:46:57.763Z,100004.22
2019-06-08T14:49:34.960Z,100005.34
2019-06-08T14:52:10.884Z,100014.28
2019-06-08T14:54:41.280Z,100011.11
2019-06-08T14:57:19.352Z,100020.99
2019-06-08T14:59:56.176Z,100023.77
2019-06-08T15:02:31.293Z,100030.59
2019-06-08T15:05:02.498Z,100032.69
2019-06-08T15:07:34.961Z,100038.11
2019-06-08T15:10:38.320Z,100027.10
2019-06-08T15:13:15.194Z,100039.33
2019-06-08T15:16:00.728Z,100045.84
2019-06-08T15:18:34.513Z,100056.25
2019-06-08T15:21:24.145Z,100060.95
2019-06-08T15:24:09.491Z,100060.06
2019-06-08T15:26:52.341Z,100056.12
2019-06-08T15:29:25.006Z,100065.14
2019-06-08T15:31:58.235Z,100068.73
2019-06-08T15:34:32.740Z,100064.61
2019-06-08T15:37:04.761Z,100063.23
2019-06-08T15:39:38.750Z,100063.17
2019-06-08T15:42:11.046Z,100065.92
2019-06-08T15:44:43.515Z,100060.89
2019-06-08T15:47:17.811Z,100066.53
2019-06-08T15:49:50.416Z,100063.06
2019-06-08T15:52:22.793Z,100071.45
2019-06-08T15:54:58.193Z,100074.06
2019-06-08T15:57:31.109Z,100075.76
2019-06-08T16:00:03.616Z,100074.39
2019-06-08T16:02:35.797Z,100071.53
2019-06-08T16:05:09.029Z,100069.31
2019-06-08T16:07:41.419Z,100067.48
2019-06-08T16:10:13.801Z,100063.69
2019-06-08T16:12:46.070Z,100063.47
2019-06-08T16:15:18.304Z,100063.00
2019-06-08T16:17:50.575Z,100062.86
2019-06-08T16:20:22.830Z,100070.10
2019-06-08T16:22:55.097Z,100080.30
2019-06-08T16:25:27.828Z,100080.92
2019-06-08T16:28:00.202Z,100084.21
2019-06-08T16:30:33.167Z,100081.76
2019-06-08T16:33:05.774Z,100082.05
2019-06-08T16:35:39.974Z,100088.75
2019-06-08T16:38:12.545Z,100086.45
2019-06-08T16:40:44.727Z,100096.66
2019-06-08T16:43:17.024Z,100104.70
2019-06-08T16:45:49.485Z,100101.18
2019-06-08T16:48:21.693Z,100096.91
2019-06-08T16:50:54.145Z,100089.73
2019-06-08T16:53:27.434Z,100082.31
2019-06-08T16:55:59.755Z,100084.27
2019-06-08T16:58:32.165Z,100085.03
2019-06-08T17:01:05.289Z,100087.37
2019-06-08T17:03:38.966Z,100088.86
2019-06-08T17:06:11.303Z,100093.03
2019-06-08T17:08:43.511Z,100090.23
2019-06-08T17:11:15.789Z,100092.80
2019-06-08T17:13:48.048Z,100086.64
2019-06-08T17:16:20.435Z,100096.65
2019-06-08T17:18:56.136Z,100091.75
2019-06-08T17:21:27.792Z,100092.52
2019-06-08T17:24:00.057Z,100083.27
2019-06-08T17:26:32.655Z,100081.07
2019-06-08T17:29:04.825Z,100084.09
2019-06-08T17:31:37.251Z,100087.78
2019-06-08T17:34:09.455Z,100069.26
2019-06-08T17:36:42.758Z,100077.80
2019-06-08T17:39:15.260Z,100077.08
2019-06-08T17:41:47.541Z,100082.45
2019-06-08T17:44:19.925Z,100086.13
2019-06-08T17:46:52.406Z,100093.61
2019-06-08T17:49:24.672Z,100098.03
2019-06-08T17:51:56.925Z,100098.35
2019-06-08T17:54:29.189Z,100091.20
2019-06-08T17:57:01.534Z,100084.56
2019-06-08T17:59:33.750Z,100096.66
2019-06-08T18:02:10.254Z,100105.35
2019-06-08T18:04:43.295Z,100100.83
2019-06-08T18:07:17.590Z,100088.99
2019-06-08T18:09:52.124Z,100088.99
2019-06-08T18:12:24.493Z,100108.41
2019-06-08T18:14:57.970Z,100102.15
2019-06-08T18:17:30.400Z,100100.67
2019-06-08T18:20:02.815Z,100103.03
2019-06-08T18:22:36.834Z,100100.59
2019-06-08T18:25:10.320Z,100101.95
2019-06-08T18:28:00.830Z,100106.97
2019-06-08T18:30:21.484Z,100110.84
2019-06-08T18:32:54.761Z,100115.22
2019-06-08T18:35:28.009Z,100121.76
2019-06-08T18:38:00.543Z,100114.34
2019-06-08T18:40:34.878Z,100124.69
2019-06-08T18:43:08.360Z,100127.17
2019-06-08T18:45:43.199Z,100121.16
2019-06-08T18:48:18.027Z,100139.48
2019-06-08T18:50:50.391Z,100137.67
2019-06-08T18:53:22.643Z,100140.40
2019-06-08T18:55:54.922Z,100136.30
2019-06-08T18:58:27.961Z,100137.34
2019-06-08T19:01:00.415Z,100144.37
2019-06-08T19:03:32.601Z,100137.82
2019-06-08T19:06:04.804Z,100139.67
2019-06-08T19:08:40.898Z,100135.70
2019-06-08T19:11:11.437Z,100140.17
2019-06-08T19:13:44.089Z,100146.74
2019-06-08T19:16:18.145Z,100147.52
2019-06-08T19:18:52.804Z,100155.23
2019-06-08T19:21:24.306Z,100147.84
2019-06-08T19:23:56.573Z,100152.95
2019-06-08T19:26:28.843Z,100150.70
2019-06-08T19:29:01.017Z,100149.52
2019-06-08T19:31:33.287Z,100150.23
2019-06-08T19:34:07.619Z,100155.56
2019-06-08T19:36:43.109Z,100151.52
2019-06-08T19:39:17.793Z,100155.99
2019-06-08T19:41:50.597Z,100166.76
2019-06-08T19:44:23.035Z,100171.64
2019-06-08T19:46:57.502Z,100167.95
2019-06-08T19:49:30.605Z,100167.48
2019-06-08T19:52:05.245Z,100168.06
2019-06-08T19:54:45.386Z,100166.23
2019-06-08T19:57:13.979Z,100173.59
2019-06-08T19:59:47.503Z,100170.95
2019-06-08T20:02:20.096Z,100172.17
2019-06-08T20:04:53.297Z,100175.79
2019-06-08T20:07:27.571Z,100173.95
2019-06-08T20:09:59.730Z,100174.55
2019-06-08T20:12:32.009Z,100196.53
2019-06-08T20:15:05.444Z,100190.30
2019-06-08T20:17:37.690Z,100185.41
2019-06-08T20:20:11.204Z,100189.22
2019-06-08T20:22:44.544Z,100184.66
2019-06-08T20:25:17.989Z,100181.80
2019-06-08T20:27:51.685Z,100191.39
2019-06-08T20:30:25.206Z,100186.63
2019-06-08T20:32:58.494Z,100187.14
2019-06-08T20:35:31.837Z,100185.00
2019-06-08T20:38:05.132Z,100189.92
2019-06-08T20:40:38.739Z,100192.81
2019-06-08T20:43:12.027Z,100182.51
2019-06-08T20:45:46.658Z,100184.38
2019-06-08T20:48:20.372Z,100182.58
2019-06-08T20:50:53.983Z,100166.08
2019-06-08T20:53:28.318Z,100174.44
2019-06-08T20:56:01.771Z,100161.86
2019-06-08T20:58:37.158Z,100155.41
2019-06-08T21:01:09.321Z,100170.36
2019-06-08T21:03:41.561Z,100166.66
2019-06-08T21:06:13.833Z,100165.36
2019-06-08T21:08:48.598Z,100162.30
2019-06-08T21:11:20.053Z,100158.22
2019-06-08T21:13:53.663Z,100161.08
2019-06-08T21:16:27.680Z,100162.77
2019-06-08T21:19:00.085Z,100165.80
2019-06-08T21:21:32.338Z,100173.66
2019-06-08T21:24:07.863Z,100178.95
2019-06-08T21:26:40.300Z,100174.56
2019-06-08T21:29:12.715Z,100174.42
2019-06-08T21:31:44.911Z,100169.52
2019-06-08T21:34:18.132Z,100174.62
2019-06-08T21:36:53.842Z,100174.11
2019-06-08T21:39:28.033Z,100173.26
2019-06-08T21:42:03.017Z,100176.83
2019-06-08T21:44:34.339Z,100181.76
2019-06-08T21:47:08.814Z,100180.06
2019-06-08T21:49:42.212Z,100186.14
2019-06-08T21:52:17.934Z,100177.99
2019-06-08T21:54:50.519Z,100174.91
2019-06-08T21:57:22.794Z,100174.02
2019-06-08T22:00:14.082Z,100175.46
2019-06-08T22:02:30.910Z,100171.52
2019-06-08T22:05:08.036Z,100171.35
2019-06-08T22:07:40.555Z,100169.62
2019-06-08T22:10:13.814Z,100181.29
2019-06-08T22:12:48.291Z,100183.84
2019-06-08T22:15:22.169Z,100180.58
2019-06-08T22:17:55.456Z,100176.49
2019-06-08T22:20:27.822Z,100172.27
2019-06-08T22:23:01.297Z,100171.63
2019-06-08T22:25:34.553Z,100172.27
2019-06-08T22:28:07.851Z,100180.27
2019-06-08T22:30:43.076Z,100174.62
2019-06-08T22:33:17.587Z,100179.05
2019-06-08T22:35:50.197Z,100184.11
2019-06-08T22:38:23.360Z,100187.99
2019-06-08T22:40:57.626Z,100199.38
2019-06-08T22:43:31.695Z,100192.30
2019-06-08T22:46:04.987Z,100200.98
2019-06-08T22:48:38.553Z,100198.46
2019-06-08T22:51:12.051Z,100193.36
2019-06-08T22:53:47.763Z,100194.01
2019-06-08T22:56:20.605Z,100185.47
2019-06-08T22:58:55.782Z,100188.84
2019-06-08T23:01:28.811Z,100184.76
2019-06-08T23:04:03.990Z,100189.86
2019-06-08T23:06:38.628Z,100198.36
2019-06-08T23:09:12.087Z,100201.80
2019-06-08T23:11:47.126Z,100194.14
2019-06-08T23:14:20.547Z,100199.59
2019-06-08T23:16:54.552Z,100189.92
2019-06-08T23:19:28.189Z,100194.89
2019-06-08T23:22:02.792Z,100188.97
2019-06-08T23:24:38.262Z,100193.77
2019-06-08T23:27:11.551Z,100201.21
2019-06-08T23:29:44.842Z,100205.49
2019-06-08T23:32:18.271Z,100205.70
2019-06-08T23:34:51.604Z,100221.68
2019-06-08T23:37:24.886Z,100220.31
2019-06-08T23:39:57.958Z,100222.70
2019-06-08T23:42:31.206Z,100222.70
2019-06-08T23:45:10.352Z,100226.78
2019-06-08T23:47:40.725Z,100227.77
2019-06-08T23:50:14.202Z,100231.45
2019-06-08T23:52:47.837Z,100227.82
2019-06-08T23:55:21.332Z,100234.08
2019-06-08T23:57:54.625Z,100245.61
